Time;durP1;ratioP1;P1;durP2;ratioP2;P2;SDS_P1;SDS_P2;PMS_P1;PMS_P2;Temp;Humidity;BMP_temperature;BMP_pressure;BME280_temperature;BME280_humidity;BME280_pressure;Samples;Min_cycle;Max_cycle;Signal;HPM_P1;HPM_P2
2022/11/25 00:01:29;;;;;;;;;;;;;;;18.09;48.04;100318.34;4863378;29;1967;-49
2022/11/25 00:03:55;;;;;;;;;;;;;;;17.10;48.93;100315.81;4863548;29;1133;-46
2022/11/25 00:06:20;;;;;;;;;;;;;;;17.07;48.91;100321.06;4863269;29;1199;-48
2022/11/25 00:08:46;;;;;;;;;;;;;;;17.62;48.56;100313.34;4867414;29;2338;-46
2022/11/25 00:11:12;;;;;;;;;;;;;;;16.85;48.70;100316.81;4863659;29;1179;-47
2022/11/25 00:13:37;;;;;;;;;;;;;;;16.79;47.35;100320.72;4868916;29;1214;-47
2022/11/25 00:16:06;;;;;;;;;;;;;;;16.56;47.18;100322.22;4863652;29;1121;-47
2022/11/25 00:18:32;;;;;;;;;;;;;;;16.55;46.80;100334.31;4863140;29;1148;-49
2022/11/25 00:20:57;;;;;;;;;;;;;;;17.12;48.21;100336.69;4863164;29;1140;-46
2022/11/25 00:23:23;;;;;;;;;;;;;;;16.68;47.66;100322.69;4863950;29;1988;-47
2022/11/25 00:25:48;;;;;;;;;;;;;;;16.50;47.22;100331.59;4866635;29;1119;-46
2022/11/25 00:28:14;;;;;;;;;;;;;;;17.20;47.51;100327.81;4863275;29;1196;-48
2022/11/25 00:30:39;;;;;;;;;;;;;;;17.07;48.07;100327.38;4863761;29;1108;-49
2022/11/25 00:33:05;;;;;;;;;;;;;;;17.00;48.45;100331.53;4846832;29;1219;-46
2022/11/25 00:35:30;;;;;;;;;;;;;;;18.38;47.11;100322.91;4864253;29;1144;-44
2022/11/25 00:37:56;;;;;;;;;;;;;;;17.15;48.54;100325.09;4864611;29;1251;-49
2022/11/25 00:40:21;;;;;;;;;;;;;;;16.82;47.82;100333.06;4871261;29;2552;-47
2022/11/25 00:45:31;;;;;;;;;;;;;;;16.95;48.78;100339.84;4863153;29;1100;-49
2022/11/25 00:47:56;;;;;;;;;;;;;;;17.16;48.23;100344.03;4847606;29;1423;-48
2022/11/25 00:50:21;;;;;;;;;;;;;;;17.79;48.16;100337.66;4846114;29;1132;-46
2022/11/25 00:52:47;;;;;;;;;;;;;;;16.99;48.37;100347.22;4862859;29;1515;-48
2022/11/25 00:55:12;;;;;;;;;;;;;;;16.81;47.60;100336.91;4862700;29;1156;-45
2022/11/25 00:57:38;;;;;;;;;;;;;;;16.63;46.78;100344.69;4863184;29;1133;-49
2022/11/25 01:00:04;;;;;;;;;;;;;;;17.44;47.89;100349.84;4849764;29;1152;-47
2022/11/25 01:02:30;;;;;;;;;;;;;;;16.73;48.01;100350.13;4871627;29;1918;-49
2022/11/25 01:04:55;;;;;;;;;;;;;;;17.88;47.72;100343.34;4845782;29;1240;-45
2022/11/25 01:07:21;;;;;;;;;;;;;;;17.50;48.36;100347.88;4846392;29;1211;-47
2022/11/25 01:09:46;;;;;;;;;;;;;;;16.92;48.14;100353.03;4862100;29;2476;-50
2022/11/25 01:12:11;;;;;;;;;;;;;;;16.79;47.69;100347.31;4847996;29;1172;-50
2022/11/25 01:14:37;;;;;;;;;;;;;;;17.25;48.40;100347.81;4862658;29;1101;-47
2022/11/25 01:17:02;;;;;;;;;;;;;;;16.83;47.70;100346.50;4862542;29;1164;-48
2022/11/25 01:19:28;;;;;;;;;;;;;;;16.65;47.04;100338.91;4862693;29;1125;-50
2022/11/25 01:21:53;;;;;;;;;;;;;;;17.00;47.64;100348.88;4862896;29;1980;-48
2022/11/25 01:24:19;;;;;;;;;;;;;;;16.76;48.07;100346.00;4846310;29;1200;-50
2022/11/25 01:26:44;;;;;;;;;;;;;;;17.37;47.85;100343.88;4845599;29;1218;-49
2022/11/25 01:29:17;;;;;;;;;;;;;;;18.27;47.23;100333.25;4846083;29;1224;-50
2022/11/25 01:31:42;;;;;;;;;;;;;;;17.06;48.50;100342.22;4845761;29;1559;-48
2022/11/25 01:34:11;;;;;;;;;;;;;;;16.76;47.55;100346.00;4862483;29;1117;-45
2022/11/25 01:36:37;;;;;;;;;;;;;;;16.68;46.83;100350.16;4868626;29;1200;-50
2022/11/25 01:39:03;;;;;;;;;;;;;;;16.94;47.71;100352.72;4876986;29;2413;-46
2022/11/25 01:41:29;;;;;;;;;;;;;;;17.17;48.04;100355.88;4860772;29;1907;-49
2022/11/25 01:44:08;;;;;;;;;;;;;;;16.70;47.93;100358.91;4862549;29;1139;-47
2022/11/25 01:46:47;;;;;;;;;;;;;;;17.33;48.10;100362.03;4862674;29;1141;-50
2022/11/25 01:49:21;;;;;;;;;;;;;;;16.75;48.69;100367.13;4856589;29;1124;-48
2022/11/25 01:51:48;;;;;;;;;;;;;;;18.16;47.44;100356.50;4852790;29;1089;-48
2022/11/25 01:54:15;;;;;;;;;;;;;;;17.96;47.84;100358.41;4849125;29;1088;-49
2022/11/25 01:56:43;;;;;;;;;;;;;;;17.19;48.17;100364.63;4849396;29;1132;-49
2022/11/25 01:59:09;;;;;;;;;;;;;;;16.93;47.54;100362.91;4849651;29;1232;-47
2022/11/25 02:01:34;;;;;;;;;;;;;;;17.36;48.14;100345.81;4874475;29;1918;-48
2022/11/25 02:03:59;;;;;;;;;;;;;;;17.15;48.33;100358.06;4865866;29;1223;-49
2022/11/25 02:06:29;;;;;;;;;;;;;;;16.85;47.59;100349.75;4866100;29;1251;-46
2022/11/25 02:08:57;;;;;;;;;;;;;;;17.69;48.02;100351.50;4849028;29;2603;-45
2022/11/25 02:11:23;;;;;;;;;;;;;;;16.94;48.08;100355.47;4848602;29;1221;-49
2022/11/25 02:13:48;;;;;;;;;;;;;;;16.67;47.23;100356.75;4860133;29;1676;-51
2022/11/25 02:16:14;;;;;;;;;;;;;;;17.48;47.71;100366.59;4849265;29;1152;-48
2022/11/25 02:18:39;;;;;;;;;;;;;;;16.70;48.11;100364.41;4848991;29;1637;-47
2022/11/25 02:21:06;;;;;;;;;;;;;;;16.65;46.99;100361.72;4865046;29;1179;-48
2022/11/25 02:23:50;;;;;;;;;;;;;;;17.68;47.54;100365.56;4848173;29;1962;-49
2022/11/25 02:26:15;;;;;;;;;;;;;;;16.80;47.98;100368.19;4872737;29;1032;-49
2022/11/25 02:28:41;;;;;;;;;;;;;;;16.62;47.25;100365.03;4849403;29;1290;-50
2022/11/25 02:31:06;;;;;;;;;;;;;;;16.53;47.09;100367.53;4848717;29;1180;-48
2022/11/25 02:33:33;;;;;;;;;;;;;;;17.31;47.65;100369.78;4847998;29;1176;-50
2022/11/25 02:36:00;;;;;;;;;;;;;;;16.85;48.64;100370.91;4865267;29;1128;-47
2022/11/25 02:38:38;;;;;;;;;;;;;;;18.67;46.61;100372.34;4857264;29;2454;-47
2022/11/25 02:41:05;;;;;;;;;;;;;;;17.43;48.29;100365.53;4833246;29;1390;-50
2022/11/25 02:43:31;;;;;;;;;;;;;;;17.01;48.00;100368.91;4848447;29;1968;-49
2022/11/25 02:45:56;;;;;;;;;;;;;;;16.68;47.55;100366.63;4865261;29;1113;-45
2022/11/25 02:48:22;;;;;;;;;;;;;;;17.49;48.02;100357.22;4865108;29;1132;-46
2022/11/25 02:50:47;;;;;;;;;;;;;;;16.91;48.09;100351.41;4872384;29;1138;-50
2022/11/25 02:53:13;;;;;;;;;;;;;;;17.00;47.96;100361.75;4847662;29;1566;-50
2022/11/25 02:55:39;;;;;;;;;;;;;;;17.09;48.27;100366.34;4847893;29;1351;-47
2022/11/25 02:58:05;;;;;;;;;;;;;;;16.69;47.75;100373.75;4848733;29;1219;-50
2022/11/25 03:00:30;;;;;;;;;;;;;;;17.45;48.03;100374.28;4864709;29;1128;-49
2022/11/25 03:02:55;;;;;;;;;;;;;;;17.18;48.46;100373.97;4870232;29;1915;-48
2022/11/25 03:05:21;;;;;;;;;;;;;;;16.79;47.66;100377.53;4864148;29;1283;-48
2022/11/25 03:07:46;;;;;;;;;;;;;;;16.57;47.10;100381.50;4848311;29;1281;-49
2022/11/25 03:10:16;;;;;;;;;;;;;;;17.38;47.80;100389.50;4847736;29;2541;-48
2022/11/25 03:12:42;;;;;;;;;;;;;;;16.72;47.73;100386.91;4848903;29;1306;-47
2022/11/25 03:15:07;;;;;;;;;;;;;;;17.75;47.41;100388.03;4871214;29;1099;-45
2022/11/25 03:17:33;;;;;;;;;;;;;;;17.22;48.34;100386.03;4848143;29;1506;-47
2022/11/25 03:19:58;;;;;;;;;;;;;;;16.83;47.72;100393.16;4848276;29;1309;-50
2022/11/25 03:22:24;;;;;;;;;;;;;;;16.79;47.52;100388.50;4847563;29;1939;-49
2022/11/25 03:24:49;;;;;;;;;;;;;;;17.25;48.52;100385.47;4864425;29;1158;-50
2022/11/25 03:27:15;;;;;;;;;;;;;;;16.71;47.99;100390.75;4853147;29;1186;-46
2022/11/25 03:29:41;;;;;;;;;;;;;;;17.51;47.80;100399.00;4847918;29;1155;-47
2022/11/25 03:32:06;;;;;;;;;;;;;;;16.94;48.35;100399.44;4847691;29;1172;-48
2022/11/25 03:34:32;;;;;;;;;;;;;;;16.69;47.39;100398.47;4863479;29;1152;-49
2022/11/25 03:36:57;;;;;;;;;;;;;;;17.53;47.53;100399.50;4849474;29;1120;-47
2022/11/25 03:39:26;;;;;;;;;;;;;;;16.92;48.52;100399.72;4849971;29;2294;-49
2022/11/25 03:41:51;;;;;;;;;;;;;;;18.41;46.80;100399.41;4847687;29;1907;-48
2022/11/25 03:44:18;;;;;;;;;;;;;;;18.52;46.81;100408.34;4863552;29;1184;-49
2022/11/25 03:46:43;;;;;;;;;;;;;;;17.37;48.33;100405.16;4863594;29;976;-49
2022/11/25 03:49:10;;;;;;;;;;;;;;;17.04;47.93;100407.63;4850013;29;1207;-50
2022/11/25 03:51:36;;;;;;;;;;;;;;;16.88;46.97;100417.03;4848944;29;1317;-50
2022/11/25 03:54:01;;;;;;;;;;;;;;;16.65;46.44;100415.78;4863867;29;1120;-49
2022/11/25 03:56:29;;;;;;;;;;;;;;;17.56;47.42;100418.19;4847150;29;1462;-48
2022/11/25 03:58:55;;;;;;;;;;;;;;;16.96;47.79;100415.63;4847759;29;1323;-49
2022/11/25 04:01:21;;;;;;;;;;;;;;;16.74;47.20;100412.16;4848684;29;1967;-49
2022/11/25 04:03:46;;;;;;;;;;;;;;;16.49;46.61;100413.09;4846848;29;1339;-49
2022/11/25 04:06:12;;;;;;;;;;;;;;;17.50;47.49;100405.59;4847163;29;1424;-46
2022/11/25 04:08:38;;;;;;;;;;;;;;;17.15;48.42;100408.34;4850100;29;2359;-49
2022/11/25 04:11:05;;;;;;;;;;;;;;;16.92;48.69;100405.22;4846610;29;1327;-50
2022/11/25 04:13:36;;;;;;;;;;;;;;;18.29;47.32;100408.09;4846253;29;1287;-49
2022/11/25 04:16:02;;;;;;;;;;;;;;;17.16;48.68;100409.19;4863099;29;1182;-47
2022/11/25 04:18:28;;;;;;;;;;;;;;;17.14;48.63;100411.38;4847266;29;1403;-49
2022/11/25 04:20:57;;;;;;;;;;;;;;;17.37;48.64;100412.56;4847288;29;1464;-49
2022/11/25 04:23:22;;;;;;;;;;;;;;;16.94;47.88;100418.66;4845996;29;1972;-47
2022/11/25 04:25:57;;;;;;;;;;;;;;;16.69;47.31;100416.84;4846257;29;1263;-48
2022/11/25 04:28:29;;;;;;;;;;;;;;;17.18;48.39;100424.28;4846922;29;1227;-50
2022/11/25 04:30:55;;;;;;;;;;;;;;;16.75;47.99;100430.28;4846755;29;1308;-47
2022/11/25 04:33:20;;;;;;;;;;;;;;;17.79;47.88;100433.94;4863072;29;1148;-47
2022/11/25 04:35:46;;;;;;;;;;;;;;;17.18;48.67;100424.28;4863208;29;1133;-48
2022/11/25 04:38:12;;;;;;;;;;;;;;;16.75;47.89;100432.22;4848731;29;1895;-50
2022/11/25 04:40:37;;;;;;;;;;;;;;;16.48;47.51;100438.09;4863477;29;1112;-49
2022/11/25 04:43:15;;;;;;;;;;;;;;;17.19;47.65;100442.38;4846077;29;1966;-50
2022/11/25 04:45:58;;;;;;;;;;;;;;;17.08;48.06;100452.63;4851911;29;1128;-47
2022/11/25 04:48:23;;;;;;;;;;;;;;;16.60;47.65;100441.34;4828210;29;1152;-49
2022/11/25 04:50:50;;;;;;;;;;;;;;;17.49;47.93;100453.41;4862659;29;1004;-48
2022/11/25 04:53:15;;;;;;;;;;;;;;;16.80;48.07;100448.63;4862619;29;1100;-49
2022/11/25 04:55:41;;;;;;;;;;;;;;;16.81;48.09;100436.56;4846472;29;1342;-52
2022/11/25 04:58:12;;;;;;;;;;;;;;;17.38;48.30;100450.75;4848225;29;1427;-51
2022/11/25 05:00:40;;;;;;;;;;;;;;;16.73;48.02;100451.72;4852378;29;1207;-53
2022/11/25 05:03:06;;;;;;;;;;;;;;;16.62;48.15;100450.13;4845958;29;1980;-51
2022/11/25 05:05:36;;;;;;;;;;;;;;;17.07;48.32;100444.69;4854494;29;1195;-53
2022/11/25 05:08:02;;;;;;;;;;;;;;;17.97;47.50;100445.31;4852423;29;1995;-50
2022/11/25 05:10:27;;;;;;;;;;;;;;;19.08;46.20;100437.91;4862840;29;1172;-52
2022/11/25 05:12:54;;;;;;;;;;;;;;;17.58;48.63;100441.53;4858315;29;1312;-55
2022/11/25 05:15:20;;;;;;;;;;;;;;;17.03;48.37;100443.63;4852155;29;1024;-56
2022/11/25 05:17:46;;;;;;;;;;;;;;;16.84;47.51;100446.97;4845894;29;1385;-53
2022/11/25 05:20:13;;;;;;;;;;;;;;;17.58;48.50;100458.00;4846062;29;1244;-46
2022/11/25 05:22:39;;;;;;;;;;;;;;;16.94;48.54;100457.09;4861357;29;1911;-53
2022/11/25 05:25:06;;;;;;;;;;;;;;;16.66;47.69;100450.38;4856608;29;1309;-52
2022/11/25 05:27:37;;;;;;;;;;;;;;;17.68;48.20;100459.84;4855664;29;1277;-52
2022/11/25 05:30:07;;;;;;;;;;;;;;;16.90;48.54;100467.00;4859567;29;1547;-55
2022/11/25 05:32:32;;;;;;;;;;;;;;;16.66;47.75;100477.81;4858783;29;1411;-54
2022/11/25 05:35:01;;;;;;;;;;;;;;;17.66;48.17;100477.78;4860978;29;1641;-53
2022/11/25 05:37:26;;;;;;;;;;;;;;;16.90;48.82;100488.97;4865810;29;1020;-50
2022/11/25 05:39:59;;;;;;;;;;;;;;;16.58;48.12;100492.97;4864670;29;1956;-54
2022/11/25 05:42:52;;;;;;;;;;;;;;;16.72;47.94;100510.47;4849875;29;1922;-53
2022/11/25 05:45:18;;;;;;;;;;;;;;;17.02;48.47;100518.88;4849288;29;1206;-54
2022/11/25 05:47:44;;;;;;;;;;;;;;;17.76;47.92;100521.69;4848718;29;1116;-53
2022/11/25 05:50:12;;;;;;;;;;;;;;;18.88;46.66;100518.91;4863521;29;1288;-47
2022/11/25 05:52:37;;;;;;;;;;;;;;;17.36;49.18;100532.69;4850920;29;1211;-49
2022/11/25 05:55:03;;;;;;;;;;;;;;;17.07;48.22;100536.16;4849324;29;1694;-52
2022/11/25 05:57:30;;;;;;;;;;;;;;;16.98;48.10;100546.06;4866015;29;1081;-48
2022/11/25 06:00:04;;;;;;;;;;;;;;;17.62;48.67;100551.75;4849410;29;1263;-49
2022/11/25 06:02:49;;;;;;;;;;;;;;;17.02;48.32;100552.66;4843795;29;1974;-49
2022/11/25 06:05:15;;;;;;;;;;;;;;;16.76;47.49;100565.66;4846607;29;1152;-50
2022/11/25 06:07:40;;;;;;;;;;;;;;;16.64;46.74;100567.88;4865200;29;1223;-52
2022/11/25 06:10:06;;;;;;;;;;;;;;;17.30;48.13;100575.03;4848199;29;1347;-50
2022/11/25 06:12:34;;;;;;;;;;;;;;;17.16;48.86;100574.84;4849326;29;1592;-50
2022/11/25 06:15:00;;;;;;;;;;;;;;;16.78;48.12;100574.41;4846130;29;1376;-52
2022/11/25 06:17:26;;;;;;;;;;;;;;;16.61;47.30;100577.50;4861448;29;1402;-51
2022/11/25 06:20:04;;;;;;;;;;;;;;;17.36;48.76;100589.56;4861912;29;1623;-50
2022/11/25 06:22:29;;;;;;;;;;;;;;;16.77;48.50;100587.34;4849481;29;1919;-49
2022/11/25 06:24:55;;;;;;;;;;;;;;;16.63;47.52;100583.50;4831577;29;1245;-49
2022/11/25 06:27:21;;;;;;;;;;;;;;;17.60;48.11;100589.72;4834387;29;1126;-57
2022/11/25 06:29:47;;;;;;;;;;;;;;;16.88;48.93;100587.28;4859445;29;1144;-53
2022/11/25 06:32:12;;;;;;;;;;;;;;;17.69;47.44;100593.50;4860896;29;1408;-50
2022/11/25 06:35:21;;;;;;;;;;;;;;;16.99;49.28;100596.34;5046785;27;1369345;-52
2022/11/25 06:37:51;;;;;;;;;;;;;;;16.73;50.13;100599.97;5072828;28;2149;-48
2022/11/25 06:40:17;;;;;;;;;;;;;;;16.56;50.51;100599.47;5079011;28;1185;-49
2022/11/25 06:42:42;;;;;;;;;;;;;;;16.41;50.59;100595.66;5073554;28;982;-48
2022/11/25 06:45:08;;;;;;;;;;;;;;;16.31;51.07;100603.06;5076956;28;1164;-44
2022/11/25 06:47:33;;;;;;;;;;;;;;;16.16;51.10;100612.97;5087301;28;1107;-50
2022/11/25 06:49:59;;;;;;;;;;;;;;;16.04;51.45;100598.69;5066532;28;1108;-50
2022/11/25 06:52:24;;;;;;;;;;;;;;;15.95;51.71;100606.66;5070274;28;943;-46
2022/11/25 06:54:50;;;;;;;;;;;;;;;16.12;51.55;100613.75;5072414;28;1897;-47
2022/11/25 06:57:16;;;;;;;;;;;;;;;17.13;48.56;100602.06;5071578;28;971;-51
2022/11/25 06:59:42;;;;;;;;;;;;;;;16.37;50.78;100605.53;5071265;28;1131;-50
2022/11/25 07:02:08;;;;;;;;;;;;;;;16.11;51.37;100603.91;5059967;28;1336;-50
2022/11/25 07:04:34;;;;;;;;;;;;;;;15.94;51.64;100615.97;5056996;28;1288;-48
2022/11/25 07:07:00;;;;;;;;;;;;;;;17.41;47.95;100611.53;5070224;28;1038;-50
2022/11/25 07:09:25;;;;;;;;;;;;;;;16.48;50.20;100608.25;5072080;28;1175;-50
2022/11/25 07:11:51;;;;;;;;;;;;;;;16.17;50.81;100602.78;5070780;28;1183;-50
2022/11/25 07:14:16;;;;;;;;;;;;;;;16.00;51.41;100617.59;5061179;28;1902;-48
2022/11/25 07:16:42;;;;;;;;;;;;;;;16.74;49.66;100606.28;5064689;28;1164;-50
2022/11/25 07:19:08;;;;;;;;;;;;;;;16.91;48.96;100601.34;5071291;28;1112;-45
2022/11/25 07:21:35;;;;;;;;;;;;;;;16.28;50.44;100603.63;5065776;28;1228;-51
2022/11/25 07:24:01;;;;;;;;;;;;;;;16.04;51.10;100598.69;5065613;28;1184;-49
2022/11/25 07:26:27;;;;;;;;;;;;;;;16.57;49.92;100595.63;5057760;28;1230;-49
2022/11/25 07:28:53;;;;;;;;;;;;;;;17.22;48.17;100600.34;5070703;28;937;-47
2022/11/25 07:31:23;;;;;;;;;;;;;;;16.43;50.16;100606.34;5070897;28;1116;-50
2022/11/25 07:33:52;;;;;;;;;;;;;;;16.13;51.01;100613.50;5064699;28;1965;-49
2022/11/25 07:36:17;;;;;;;;;;;;;;;16.02;51.16;100614.59;5071668;28;1222;-46
2022/11/25 07:38:43;;;;;;;;;;;;;;;17.52;47.48;100621.38;5071700;28;1095;-46
2022/11/25 07:41:12;;;;;;;;;;;;;;;16.58;49.64;100625.53;5071405;28;1131;-46
2022/11/25 07:43:37;;;;;;;;;;;;;;;16.22;50.59;100627.50;5071430;28;1120;-42
2022/11/25 07:46:26;;;;;;;;;;;;;;;16.13;50.94;100632.72;5044627;28;1194;-46
2022/11/25 07:48:52;;;;;;;;;;;;;;;17.44;47.43;100644.78;5049837;28;1963;-46
2022/11/25 07:51:18;;;;;;;;;;;;;;;16.52;49.76;100647.78;5051433;28;1239;-48
2022/11/25 07:53:44;;;;;;;;;;;;;;;16.20;50.85;100646.13;5057622;28;1968;-48
2022/11/25 07:56:09;;;;;;;;;;;;;;;16.92;48.97;100657.88;5058154;28;1219;-45
2022/11/25 07:58:35;;;;;;;;;;;;;;;17.06;48.30;100658.13;5058246;28;1210;-48
2022/11/25 08:01:01;;;;;;;;;;;;;;;16.43;50.33;100662.03;5058137;28;1140;-47
2022/11/25 08:03:27;;;;;;;;;;;;;;;16.20;50.63;100657.94;5054689;28;1286;-49
2022/11/25 08:05:52;;;;;;;;;;;;;;;15.97;51.26;100659.28;5050055;28;1219;-48
2022/11/25 08:08:17;;;;;;;;;;;;;;;16.93;49.21;100658.72;5047342;28;1559;-49
2022/11/25 08:10:43;;;;;;;;;;;;;;;16.97;48.87;100656.22;5057963;28;1242;-47
2022/11/25 08:13:08;;;;;;;;;;;;;;;16.32;50.54;100654.09;5056980;28;1964;-48
2022/11/25 08:15:34;;;;;;;;;;;;;;;16.07;51.00;100664.81;5054624;28;1242;-46
2022/11/25 08:17:59;;;;;;;;;;;;;;;17.23;48.22;100657.78;5055214;28;1295;-49
2022/11/25 08:20:24;;;;;;;;;;;;;;;16.81;49.16;100667.22;5052911;28;1323;-50
2022/11/25 08:22:50;;;;;;;;;;;;;;;16.33;50.51;100680.47;5050654;28;1553;-47
2022/11/25 08:25:16;;;;;;;;;;;;;;;16.08;51.08;100680.16;5049540;28;1239;-46
2022/11/25 08:27:41;;;;;;;;;;;;;;;17.55;47.50;100678.53;5048620;28;1282;-46
2022/11/25 08:30:07;;;;;;;;;;;;;;;16.77;49.29;100677.97;5053803;28;1334;-47
2022/11/25 08:32:36;;;;;;;;;;;;;;;16.30;50.42;100679.09;5049851;28;1223;-49
2022/11/25 08:35:01;;;;;;;;;;;;;;;16.05;51.21;100675.22;5051055;28;1918;-49
2022/11/25 08:37:29;;;;;;;;;;;;;;;15.88;51.49;100685.63;5036315;28;1190;-48
2022/11/25 08:39:54;;;;;;;;;;;;;;;17.32;48.19;100677.28;5053930;28;1228;-45
2022/11/25 08:42:20;;;;;;;;;;;;;;;16.80;49.14;100678.50;5049620;28;1338;-49
2022/11/25 08:44:49;;;;;;;;;;;;;;;16.22;50.42;100671.38;5052148;28;1108;-47
2022/11/25 08:47:15;;;;;;;;;;;;;;;16.05;51.17;100683.44;5051244;28;1223;-44
2022/11/25 08:49:40;;;;;;;;;;;;;;;17.02;48.72;100679.00;5049889;28;1180;-46
2022/11/25 08:52:05;;;;;;;;;;;;;;;16.81;49.23;100674.66;5053173;28;1167;-51
2022/11/25 08:54:31;;;;;;;;;;;;;;;16.25;50.75;100674.41;5051909;28;1980;-48
2022/11/25 08:56:57;;;;;;;;;;;;;;;16.18;50.87;100693.06;5028133;28;1259;-48
2022/11/25 08:59:23;;;;;;;;;;;;;;;17.71;47.02;100681.22;5040902;28;1227;-46
2022/11/25 09:01:49;;;;;;;;;;;;;;;16.71;49.27;100683.72;5053672;28;1179;-47
2022/11/25 09:04:14;;;;;;;;;;;;;;;16.31;50.55;100682.63;5048212;28;1230;-47
2022/11/25 09:06:40;;;;;;;;;;;;;;;16.07;50.94;100692.25;5045351;28;1180;-46
2022/11/25 09:09:05;;;;;;;;;;;;;;;17.56;47.42;100690.38;5045881;28;1224;-49
2022/11/25 09:11:31;;;;;;;;;;;;;;;16.70;49.38;100693.88;5056905;28;949;-51
2022/11/25 09:13:56;;;;;;;;;;;;;;;16.30;50.49;100690.06;5051107;28;1910;-50
2022/11/25 09:16:22;;;;;;;;;;;;;;;16.05;50.97;100704.56;5056286;28;1021;-48
2022/11/25 09:18:47;;;;;;;;;;;;;;;17.14;48.36;100697.94;5056664;28;994;-49
2022/11/25 09:21:13;;;;;;;;;;;;;;;17.06;48.28;100696.59;5049160;28;1077;-48
2022/11/25 09:23:39;;;;;;;;;;;;;;;16.39;50.21;100693.88;5049843;28;1368;-47
2022/11/25 09:26:05;;;;;;;;;;;;;;;16.40;50.27;100701.03;5055372;28;1211;-50
2022/11/25 09:28:31;;;;;;;;;;;;;;;17.45;47.60;100709.66;5054099;28;1073;-50
2022/11/25 09:30:56;;;;;;;;;;;;;;;16.52;50.02;100702.66;5056080;28;1046;-47
2022/11/25 09:33:22;;;;;;;;;;;;;;;16.19;50.79;100702.94;5055995;28;1913;-48
2022/11/25 09:35:49;;;;;;;;;;;;;;;15.99;51.39;100709.22;5054199;28;1167;-46
2022/11/25 09:38:14;;;;;;;;;;;;;;;17.33;48.13;100694.59;5046337;28;1216;-48
2022/11/25 09:40:58;;;;;;;;;;;;;;;16.69;49.30;100710.63;5055788;28;989;-50
2022/11/25 09:46:41;;;;;;;;;;;;;;;16.16;50.66;100713.63;5052913;28;1046;-49
2022/11/25 09:49:25;;;;;;;;;;;;;;;17.56;47.14;100718.69;5043607;28;1196;-47
2022/11/25 09:51:55;;;;;;;;;;;;;;;16.49;49.95;100714.19;5055950;28;1081;-46
2022/11/25 09:54:22;;;;;;;;;;;;;;;16.16;50.80;100717.19;5024486;28;1910;-47
2022/11/25 09:56:49;;;;;;;;;;;;;;;16.01;50.97;100711.69;5041748;28;1120;-45
2022/11/25 09:59:15;;;;;;;;;;;;;;;17.57;47.37;100716.75;5029671;28;1244;-48
2022/11/25 10:01:59;;;;;;;;;;;;;;;16.68;49.24;100711.75;5049356;28;1184;-47
2022/11/25 10:04:25;;;;;;;;;;;;;;;16.22;50.52;100724.34;5040299;28;1188;-49
2022/11/25 10:06:53;;;;;;;;;;;;;;;17.06;48.63;100713.06;5032522;28;1232;-49
2022/11/25 10:09:21;;;;;;;;;;;;;;;16.92;48.62;100718.31;5028798;28;1478;-49
2022/11/25 10:11:54;;;;;;;;;;;;;;;16.37;50.10;100711.75;5032893;28;1212;-46
2022/11/25 10:14:37;;;;;;;;;;;;;;;16.10;51.00;100720.19;5033702;28;1922;-46
2022/11/25 10:17:06;;;;;;;;;;;;;;;16.68;49.62;100718.03;5051190;28;1235;-48
2022/11/25 10:19:50;;;;;;;;;;;;;;;17.20;48.06;100720.75;5052845;28;1105;-49
2022/11/25 10:22:19;;;;;;;;;;;;;;;16.38;50.41;100722.44;5062009;28;2143;-45
2022/11/25 10:24:44;;;;;;;;;;;;;;;16.10;51.06;100732.00;5059974;28;2072;-47
2022/11/25 10:27:14;;;;;;;;;;;;;;;17.45;47.87;100725.34;5054706;28;2276;-47
2022/11/25 10:29:39;;;;;;;;;;;;;;;16.69;49.70;100727.94;5037098;28;2182;-45
2022/11/25 10:32:24;;;;;;;;;;;;;;;16.24;50.52;100718.56;5035331;28;1807;-47
2022/11/25 10:34:53;;;;;;;;;;;;;;;16.41;50.47;100732.88;5043553;28;2136;-47
2022/11/25 10:37:28;;;;;;;;;;;;;;;17.41;47.73;100724.25;5028048;28;1113;-45
2022/11/25 10:39:54;;;;;;;;;;;;;;;16.49;50.29;100727.94;5031958;28;1195;-42
2022/11/25 10:42:24;;;;;;;;;;;;;;;16.17;50.97;100724.34;5051423;28;1095;-45
2022/11/25 10:44:49;;;;;;;;;;;;;;;16.15;51.24;100725.72;5055233;28;1112;-43
2022/11/25 10:47:33;;;;;;;;;;;;;;;17.52;47.61;100725.03;5051951;28;1172;-46
2022/11/25 10:50:19;;;;;;;;;;;;;;;16.49;49.88;100730.66;5049255;28;1178;-44
2022/11/25 10:52:53;;;;;;;;;;;;;;;16.17;51.11;100720.75;5008534;28;1166;-46
2022/11/25 10:55:20;;;;;;;;;;;;;;;15.97;51.21;100729.78;5055010;28;1917;-45
2022/11/25 10:57:45;;;;;;;;;;;;;;;17.47;47.78;100723.09;5037225;28;1117;-45
2022/11/25 11:00:30;;;;;;;;;;;;;;;16.65;49.67;100729.59;5054564;28;1151;-42
2022/11/25 11:02:56;;;;;;;;;;;;;;;16.20;50.56;100740.25;5050915;28;1056;-47
2022/11/25 11:05:22;;;;;;;;;;;;;;;15.98;51.13;100739.66;5054208;28;1065;-48
2022/11/25 11:07:47;;;;;;;;;;;;;;;17.34;48.08;100738.28;5037218;28;1877;-49
2022/11/25 11:10:13;;;;;;;;;;;;;;;16.68;49.46;100745.50;5036866;28;1247;-48
2022/11/25 11:12:39;;;;;;;;;;;;;;;16.24;50.53;100746.84;5045364;28;1212;-51
2022/11/25 11:15:13;;;;;;;;;;;;;;;17.14;48.63;100757.56;5028680;28;1918;-45
2022/11/25 11:17:39;;;;;;;;;;;;;;;16.76;48.90;100755.94;5046983;28;1248;-46
2022/11/25 11:20:07;;;;;;;;;;;;;;;16.25;50.41;100745.72;5046505;28;1359;-47
2022/11/25 11:22:33;;;;;;;;;;;;;;;16.23;50.57;100756.16;5053209;28;1104;-48
2022/11/25 11:25:13;;;;;;;;;;;;;;;17.59;47.01;100753.84;5043924;28;1231;-47
2022/11/25 11:27:38;;;;;;;;;;;;;;;16.52;49.71;100746.59;5034756;28;1195;-48
2022/11/25 11:30:23;;;;;;;;;;;;;;;16.20;50.55;100745.75;5057959;28;1014;-47
2022/11/25 11:33:01;;;;;;;;;;;;;;;16.45;50.09;100740.56;5056275;28;1321;-49
2022/11/25 11:35:26;;;;;;;;;;;;;;;17.32;47.71;100740.50;5053174;28;1919;-49
2022/11/25 11:37:52;;;;;;;;;;;;;;;16.47;49.96;100749.34;5058535;28;1817;-48
2022/11/25 11:40:21;;;;;;;;;;;;;;;16.15;50.42;100753.16;5058000;28;1108;-44
2022/11/25 11:43:05;;;;;;;;;;;;;;;16.01;50.67;100767.34;5055184;28;1317;-50
2022/11/25 11:45:44;;;;;;;;;;;;;;;17.54;47.09;100761.31;5039875;28;1050;-49
2022/11/25 11:48:15;;;;;;;;;;;;;;;16.86;48.41;100770.78;5049300;28;1057;-45
2022/11/25 11:50:41;;;;;;;;;;;;;;;16.32;50.17;100772.09;5051858;28;1208;-44
2022/11/25 11:53:25;;;;;;;;;;;;;;;16.09;50.78;100782.47;5056126;28;1191;-44
2022/11/25 11:56:11;;;;;;;;;;;;;;;16.05;50.71;100781.38;5054765;28;1196;-46
2022/11/25 11:58:40;;;;;;;;;;;;;;;17.68;46.64;100772.53;5038989;28;1348;-45
2022/11/25 12:01:25;;;;;;;;;;;;;;;16.60;49.26;100771.56;5035811;28;1096;-47
2022/11/25 12:03:54;;;;;;;;;;;;;;;16.21;50.41;100784.97;5052299;28;1164;-48
2022/11/25 12:06:20;;;;;;;;;;;;;;;17.20;47.74;100772.94;5055296;28;1816;-48
2022/11/25 12:08:48;;;;;;;;;;;;;;;17.03;47.97;100781.50;5057749;28;1073;-47
2022/11/25 12:11:20;;;;;;;;;;;;;;;16.37;49.83;100781.16;5039484;28;1112;-50
2022/11/25 12:13:49;;;;;;;;;;;;;;;16.14;50.36;100789.88;5037691;28;1907;-46
2022/11/25 12:16:33;;;;;;;;;;;;;;;17.00;48.37;100804.84;5036921;28;1474;-44
2022/11/25 12:19:01;;;;;;;;;;;;;;;17.00;48.13;100791.09;5057326;28;860;-46
2022/11/25 12:21:27;;;;;;;;;;;;;;;16.38;49.67;100801.19;5054088;28;1128;-45
2022/11/25 12:24:03;;;;;;;;;;;;;;;16.12;50.35;100794.81;5054567;28;1254;-47
2022/11/25 12:26:48;;;;;;;;;;;;;;;16.88;48.68;100807.00;5043719;28;1013;-42
2022/11/25 12:29:43;;;;;;;;;;;;;;;16.87;48.60;100803.44;5055265;28;1272;-45
2022/11/25 12:32:21;;;;;;;;;;;;;;;16.26;50.09;100801.44;5041647;28;1511;-49
2022/11/25 12:34:51;;;;;;;;;;;;;;;16.01;50.89;100813.16;5047484;28;1984;-46
2022/11/25 12:37:19;;;;;;;;;;;;;;;16.79;48.89;100806.75;5035842;28;1299;-48
2022/11/25 12:39:51;;;;;;;;;;;;;;;17.17;47.77;100804.53;5033679;28;1235;-44
2022/11/25 12:42:21;;;;;;;;;;;;;;;16.41;49.72;100811.63;5048570;28;1207;-46
2022/11/25 12:45:04;;;;;;;;;;;;;;;16.48;49.76;100805.88;5029193;28;1371;-46
2022/11/25 12:47:29;;;;;;;;;;;;;;;17.29;47.40;100809.72;5032607;28;1140;-45
2022/11/25 12:49:55;;;;;;;;;;;;;;;16.47;49.49;100807.00;5056018;28;1064;-45
2022/11/25 12:52:41;;;;;;;;;;;;;;;16.16;50.17;100804.16;5034440;28;1308;-41
2022/11/25 12:55:06;;;;;;;;;;;;;;;15.95;50.78;100803.25;5043148;28;1918;-46
2022/11/25 12:57:35;;;;;;;;;;;;;;;17.44;47.31;100801.47;5057107;28;1356;-40
2022/11/25 13:00:24;;;;;;;;;;;;;;;16.54;49.14;100799.31;5054680;28;1120;-47